Latest Weather Observations for Mount Boyce

IDN60901

Issued at 10:05 am EST Saturday 19 April 2014 (issued every 10 minutes, with the page automatically refreshed every 10 minutes)

About weather observations | Map of Sydney area stations | Latest observations for Sydney area | Other Formats
Station Details ID: 063292 Name: MOUNT BOYCE AWS Lat: -33.62 Lon: 150.27 Height: 1080.0 m
Data from the previous 72 hours. | See also: Recent months at Mount Boyce
Date/Time
EST
Tmp

°C
App
Tmp
°C
Dew
Point
°C
Rel
Hum
%
Delta-T

°C
Wind Press
QNH
hPa
Press
MSL
hPa
Rain
since
9 am
mm
Dir
 
Spd
km/h
Gust
km/h
Spd
kts
Gust
kts
19/10:00am 11.4 6.6 5.5 67 2.9 W 20 32 11 17 - - 0.0
19/09:30am 10.9 6.3 6.6 75 2.2 W 20 30 11 16 - - 0.0
19/09:00am 10.4 6.7 6.4 76 2.0 W 15 20 8 11 - - 0.0
19/08:30am 10.0 6.3 6.3 78 1.8 W 15 20 8 11 - - 0.0
19/08:00am 9.2 5.7 7.2 87 1.0 W 15 20 8 11 - - 0.0
19/07:30am 8.4 4.8 6.9 90 0.7 W 15 20 8 11 - - 0.0
19/07:00am 7.8 3.4 6.4 91 0.7 W 19 24 10 13 - - 0.0
19/06:30am 8.4 4.7 6.5 88 0.9 W 15 20 8 11 - - 0.0
19/06:00am 8.7 4.2 6.3 85 1.2 W 19 26 10 14 - - 0.0
19/05:30am 9.0 5.0 6.6 85 1.2 W 17 24 9 13 - - 0.0
19/05:00am 9.0 5.5 7.0 87 1.0 W 15 24 8 13 - - 0.0
19/04:30am 8.9 5.2 6.5 85 1.2 W 15 24 8 13 - - 0.0
19/04:00am 9.0 5.8 6.8 86 1.1 W 13 17 7 9 - - 0.0
19/03:30am 9.1 5.5 6.7 85 1.2 W 15 20 8 11 - - 0.0
19/03:00am 9.0 5.7 6.4 84 1.3 W 13 20 7 11 - - 0.0
19/02:30am 9.5 5.1 6.6 82 1.4 WSW 19 24 10 13 - - 0.0
19/02:00am 9.7 5.3 6.6 81 1.5 WSW 19 24 10 13 - - 0.0
19/01:30am 10.3 5.4 6.8 79 1.8 WSW 22 30 12 16 - - 0.0
19/01:00am 10.4 5.8 6.5 77 1.9 WSW 20 30 11 16 - - 0.0
19/12:30am 10.4 5.8 6.5 77 1.9 WSW 20 28 11 15 - - 0.0
19/12:00am 10.5 5.9 6.3 75 2.1 W 20 30 11 16 - - 0.0
 
Date/Time
EST
Tmp

°C
App
Tmp
°C
Dew
Point
°C
Rel
Hum
%
Delta-T

°C
Wind Press
QNH
hPa
Press
MSL
hPa
Rain
since
9 am
mm
Dir
 
Spd
km/h
Gust
km/h
Spd
kts
Gust
kts
18/11:30pm 10.3 5.8 6.1 75 2.1 W 19 26 10 14 - - 0.0
18/11:00pm 11.2 5.4 6.1 71 2.5 WSW 26 37 14 20 - - 0.0
18/10:30pm 11.2 4.9 5.9 70 2.6 WSW 28 44 15 24 - - 0.0
18/10:00pm 11.7 6.2 6.0 68 2.8 WSW 24 33 13 18 - - 0.0
18/09:30pm 11.8 6.6 5.7 66 3.0 WSW 22 30 12 16 - - 0.0
18/09:00pm 12.1 5.8 5.7 65 3.2 WSW 28 39 15 21 - - 0.0
18/08:33pm 12.2 5.9 5.6 64 3.3 WSW 28 48 15 26 - - 0.0
18/08:30pm 12.0 5.7 5.6 65 3.2 WSW 28 43 15 23 - - 0.0
18/08:00pm 12.0 6.2 6.1 67 3.0 WSW 26 39 14 21 - - 0.0
18/07:30pm 11.8 6.5 6.7 71 2.6 WSW 24 37 13 20 - - 0.0
18/07:00pm 11.9 7.4 6.8 71 2.6 WSW 20 32 11 17 - - 0.0
18/06:30pm 12.4 7.1 6.7 68 2.9 W 24 35 13 19 - - 0.0
18/06:00pm 12.3 7.9 6.4 67 3.0 WSW 19 30 10 16 - - 0.0
18/05:30pm 12.7 8.0 6.1 64 3.3 WSW 20 30 11 16 - - 0.0
18/05:00pm 13.6 8.2 6.2 61 3.7 WSW 24 39 13 21 - - 0.0
18/04:34pm 13.5 7.2 5.7 59 3.9 WSW 28 46 15 25 - - 0.0
18/04:30pm 13.5 7.5 5.4 58 4.0 WSW 26 41 14 22 - - 0.0
18/04:00pm 14.6 8.3 5.7 55 4.5 WSW 28 41 15 22 - - 0.0
18/03:32pm 14.8 7.8 5.9 55 4.5 W 32 50 17 27 - - 0.0
18/03:30pm 14.8 7.7 5.6 54 4.6 W 32 48 17 26 - - 0.0
18/03:00pm 15.4 8.2 5.9 53 4.8 WSW 33 48 18 26 - - 0.0
18/02:30pm 15.6 8.3 5.5 51 5.1 WSW 33 50 18 27 - - 0.0
18/02:11pm 15.7 9.0 5.6 51 5.1 WSW 30 48 16 26 - - 0.0
18/02:00pm 16.3 10.2 6.4 52 5.1 WSW 28 43 15 23 - - 0.0
18/01:30pm 16.0 9.0 5.9 51 5.2 WSW 32 50 17 27 - - 0.0
18/01:05pm 16.0 9.0 5.9 51 5.2 WSW 32 50 17 27 - - 0.0
18/01:00pm 15.8 9.9 5.7 51 5.1 WSW 26 44 14 24 - - 0.0
18/12:30pm 15.0 9.7 6.8 58 4.2 W 24 33 13 18 - - 0.0
18/12:00pm 14.8 10.6 7.4 61 3.9 W 19 35 10 19 - - 0.0
18/11:30am 14.2 9.8 6.6 60 3.9 W 19 30 10 16 - - 0.0
18/11:00am 13.2 8.6 5.6 60 3.8 W 19 26 10 14 - - 0.0
18/10:30am 12.5 8.1 6.5 67 3.0 W 19 30 10 16 - - 0.0
18/10:00am 11.2 7.3 7.1 76 2.1 W 17 26 9 14 - - 0.0
18/09:30am 10.7 7.5 6.8 77 2.0 W 13 19 7 10 - - 0.0
18/09:00am 10.0 6.4 6.7 80 1.6 W 15 19 8 10 - - 0.2
18/08:30am 8.9 5.6 6.3 84 1.3 W 13 19 7 10 - - 0.2
18/08:00am 7.9 4.8 5.7 86 1.1 W 11 15 6 8 - - 0.2
18/07:30am 7.2 4.1 5.5 89 0.8 W 11 15 6 8 - - 0.2
18/07:00am 6.9 3.4 5.4 90 0.7 W 13 17 7 9 - - 0.2
18/06:30am 7.0 3.6 5.9 93 0.5 W 13 15 7 8 - - 0.2
18/06:00am 6.7 3.3 5.8 94 0.4 W 13 17 7 9 - - 0.2
18/05:30am 6.6 3.6 5.9 95 0.3 W 11 13 6 7 - - 0.2
18/05:00am 6.8 3.8 6.2 96 0.3 W 11 13 6 7 - - 0.2
18/04:30am 6.9 4.0 6.3 96 0.3 W 11 13 6 7 - - 0.0
18/04:05am 7.0 3.7 6.6 97 0.2 W 13 15 7 8 - - 0.0
18/04:00am 7.1 3.9 6.7 97 0.2 W 13 17 7 9 - - 0.0
18/03:30am 7.4 4.2 7.0 97 0.2 W 13 17 7 9 - - 0.0
18/03:27am 7.4 4.2 7.0 97 0.2 W 13 17 7 9 - - 0.0
18/03:07am 7.6 4.5 7.3 98 0.1 W 13 17 7 9 - - 0.0
18/03:00am 7.8 4.8 7.5 98 0.2 WSW 13 19 7 10 - - 0.0
18/02:30am 7.7 5.0 7.4 98 0.1 W 11 13 6 7 - - 0.0
18/02:00am 7.8 5.1 7.4 97 0.2 WSW 11 13 6 7 - - 0.0
18/01:30am 8.0 5.7 7.6 97 0.2 W 9 11 5 6 - - 0.0
18/01:19am 8.2 6.4 7.8 97 0.2 W 7 9 4 5 - - 0.0
18/01:05am 8.2 6.3 7.6 96 0.3 W 7 9 4 5 - - 0.0
18/01:00am 8.1 6.8 7.5 96 0.3 W 4 9 2 5 - - 0.0
18/12:51am 7.9 7.3 7.3 96 0.3 CALM 0 0 0 0 - - 0.0
18/12:30am 8.4 7.9 7.8 96 0.3 CALM 0 0 0 0 - - 0.0
18/12:03am 8.4 7.9 7.8 96 0.3 CALM 0 0 0 0 - - 0.0
18/12:00am 8.3 7.8 7.7 96 0.3 CALM 0 6 0 3 - - 0.0
 
Date/Time
EST
Tmp

°C
App
Tmp
°C
Dew
Point
°C
Rel
Hum
%
Delta-T

°C
Wind Press
QNH
hPa
Press
MSL
hPa
Rain
since
9 am
mm
Dir
 
Spd
km/h
Gust
km/h
Spd
kts
Gust
kts
17/11:54pm 8.3 7.8 7.7 96 0.3 CALM 0 6 0 3 - - 0.0
17/11:30pm 8.7 7.0 8.3 97 0.2 NE 7 9 4 5 - - 0.0
17/11:00pm 9.1 7.5 8.6 97 0.3 NE 7 11 4 6 - - 0.0
17/10:30pm 9.0 7.3 8.4 96 0.3 ENE 7 9 4 5 - - 0.0
17/10:27pm 8.9 7.4 8.3 96 0.3 ENE 6 9 3 5 - - 0.0
17/10:25pm 8.9 7.4 8.3 96 0.3 ENE 6 9 3 5 - - 0.0
17/10:09pm 9.1 7.4 8.5 96 0.3 ENE 7 9 4 5 - - 0.0
17/10:00pm 9.1 7.4 8.5 96 0.3 ENE 7 9 4 5 - - 0.0
17/09:48pm 9.3 7.7 8.7 96 0.3 ENE 7 9 4 5 - - 0.0
17/09:30pm 9.3 7.3 8.7 96 0.3 ENE 9 13 5 7 - - 0.0
17/09:21pm 9.2 7.1 8.4 95 0.4 ENE 9 13 5 7 - - 0.0
17/09:00pm 9.1 7.0 8.2 94 0.5 ENE 9 13 5 7 - - 0.0
17/08:30pm 9.0 7.1 7.6 91 0.7 ENE 7 11 4 6 - - 0.0
17/08:00pm 9.6 7.4 7.7 88 1.0 ENE 9 11 5 6 - - 0.0
17/07:30pm 10.2 7.5 7.4 83 1.4 ENE 11 15 6 8 - - 0.0
17/07:00pm 10.8 8.8 6.9 77 2.0 ENE 7 15 4 8 - - 0.0
17/06:30pm 11.9 10.1 7.2 73 2.4 E 6 9 3 5 - - 0.0
17/06:00pm 12.2 10.4 7.1 71 2.6 ENE 6 7 3 4 - - 0.0
17/05:30pm 13.0 11.1 6.6 65 3.3 ESE 6 9 3 5 - - 0.0
17/05:00pm 14.3 12.6 7.4 63 3.6 E 6 11 3 6 - - 0.0
17/04:30pm 15.0 13.4 8.0 63 3.7 E 6 9 3 5 - - 0.0
17/04:00pm 15.7 13.7 7.0 56 4.5 SSW 7 15 4 8 - - 0.0
17/03:30pm 17.0 14.4 5.9 48 5.7 WSW 9 15 5 8 - - 0.0
17/03:00pm 16.9 12.9 6.7 51 5.3 W 17 26 9 14 - - 0.0
17/02:30pm 16.8 14.1 7.2 53 5.1 WSW 11 17 6 9 - - 0.0
17/02:00pm 15.9 12.6 6.3 53 4.9 W 13 20 7 11 - - 0.0
17/01:30pm 15.3 11.9 6.1 54 4.7 W 13 19 7 10 - - 0.0
17/01:00pm 15.6 12.3 6.6 55 4.7 WSW 13 17 7 9 - - 0.0
17/12:30pm 15.3 12.8 6.6 56 4.5 W 9 17 5 9 - - 0.0
17/12:00pm 14.6 11.6 5.9 56 4.4 W 11 20 6 11 - - 0.0
17/11:30am 14.6 12.7 7.6 63 3.7 SW 7 15 4 8 - - 0.0
17/11:00am 13.6 11.7 6.9 64 3.4 WSW 6 9 3 5 - - 0.0
17/10:30am 12.8 11.1 8.3 74 2.4 W 7 11 4 6 - - 0.0
17/10:00am 12.4 10.1 7.5 72 2.5 SSW 9 15 5 8 - - 0.0
17/09:30am 11.5 9.2 7.6 77 2.0 SSW 9 13 5 7 - - 0.0
17/09:00am 10.4 8.7 8.5 88 1.0 WSW 7 11 4 6 - - 0.2
17/08:30am 9.7 8.0 8.5 92 0.6 W 7 9 4 5 - - 0.2
17/08:00am 8.9 7.3 8.6 98 0.2 W 7 9 4 5 - - 0.2
17/07:30am 8.1 6.3 7.8 98 0.2 W 7 9 4 5 - - 0.2
17/07:00am 7.9 6.0 7.6 98 0.2 W 7 9 4 5 - - 0.2
17/06:56am 7.7 5.8 7.4 98 0.1 W 7 7 4 4 - - 0.2
17/06:46am 7.4 5.4 7.1 98 0.1 W 7 9 4 5 - - 0.2
17/06:32am 7.0 4.9 6.7 98 0.1 W 7 9 4 5 - - 0.2
17/06:30am 7.1 5.0 6.8 98 0.1 W 7 9 4 5 - - 0.2
17/06:23am 7.3 5.3 7.0 98 0.1 WSW 7 9 4 5 - - 0.2
17/06:10am 7.5 4.8 7.2 98 0.1 SW 11 13 6 7 - - 0.2
17/06:00am 7.4 5.0 7.1 98 0.1 SW 9 11 5 6 - - 0.2
17/05:58am 7.4 5.0 7.1 98 0.1 SW 9 11 5 6 - - 0.2
17/05:30am 7.9 5.6 7.6 98 0.2 W 9 11 5 6 - - 0.2
17/05:00am 8.1 5.5 7.8 98 0.2 WSW 11 15 6 8 - - 0.2
17/04:30am 8.1 5.5 7.8 98 0.2 W 11 13 6 7 - - 0.0
17/04:00am 8.2 5.6 7.9 98 0.2 W 11 15 6 8 - - 0.0
17/03:30am 8.4 5.9 8.1 98 0.2 WSW 11 15 6 8 - - 0.0
17/03:00am 8.5 6.4 8.2 98 0.2 WSW 9 13 5 7 - - 0.0
17/02:30am 8.6 6.1 8.3 98 0.2 WSW 11 13 6 7 - - 0.0
17/02:00am 8.5 6.8 8.2 98 0.2 WSW 7 9 4 5 - - 0.0
17/01:30am 8.6 7.0 8.2 97 0.2 WSW 6 9 3 5 - - 0.0
17/01:00am 8.5 6.9 8.1 97 0.2 SW 6 7 3 4 - - 0.0
17/12:56am 8.5 6.9 7.9 96 0.3 WSW 6 7 3 4 - - 0.0
17/12:31am 8.7 7.1 7.9 95 0.4 W 6 7 3 4 - - 0.0
17/12:30am 8.7 7.5 8.1 96 0.3 W 4 7 2 4 - - 0.0
17/12:00am 9.5 9.3 9.0 97 0.3 CALM 0 6 0 3 - - 0.0
 
Date/Time
EST
Tmp

°C
App
Tmp
°C
Dew
Point
°C
Rel
Hum
%
Delta-T

°C
Wind Press
QNH
hPa
Press
MSL
hPa
Rain
since
9 am
mm
Dir
 
Spd
km/h
Gust
km/h
Spd
kts
Gust
kts
16/11:30pm 9.4 8.0 8.9 97 0.3 ENE 6 7 3 4 - - 0.0
16/11:28pm 9.4 8.0 8.9 97 0.3 ENE 6 7 3 4 - - 0.0
16/11:00pm 9.0 7.3 8.5 97 0.3 ENE 7 9 4 5 - - 0.0
16/10:30pm 8.8 7.3 8.4 97 0.2 ENE 6 7 3 4 - - 0.0
16/10:05pm 9.0 7.3 8.4 96 0.3 ENE 7 9 4 5 - - 0.0
16/10:00pm 8.9 7.2 8.3 96 0.3 E 7 9 4 5 - - 0.0
16/09:38pm 9.1 7.1 8.5 96 0.3 ENE 9 11 5 6 - - 0.0
16/09:30pm 9.2 7.6 8.6 96 0.3 ENE 7 9 4 5 - - 0.0
16/09:00pm 9.1 7.4 8.3 95 0.4 ENE 7 9 4 5 - - 0.0
16/08:30pm 9.3 7.6 8.4 94 0.5 ENE 7 11 4 6 - - 0.0
16/08:00pm 9.5 7.8 8.3 92 0.6 ENE 7 9 4 5 - - 0.0
16/07:30pm 10.1 8.4 8.4 89 0.9 ENE 7 13 4 7 - - 0.0
16/07:00pm 10.9 9.5 9.0 88 1.0 ENE 6 9 3 5 - - 0.0
16/06:30pm 11.1 9.5 8.7 85 1.3 ENE 7 9 4 5 - - 0.0
16/06:00pm 11.7 10.4 9.3 85 1.3 ENE 6 7 3 4 - - 0.0
16/05:30pm 12.1 10.5 8.9 81 1.7 ENE 7 11 4 6 - - 0.0
16/05:00pm 12.7 11.4 9.3 80 1.8 ENE 6 9 3 5 - - 0.0
16/04:30pm 13.2 11.7 9.3 77 2.1 ENE 7 9 4 5 - - 0.0
16/04:00pm 13.8 12.3 8.6 71 2.8 ENE 6 9 3 5 - - 0.0
16/03:30pm 15.2 13.8 8.7 65 3.5 ENE 6 11 3 6 - - 0.0
16/03:00pm 14.9 13.6 7.7 62 3.8 NNE 4 9 2 5 - - 0.0
16/02:30pm 17.0 15.6 8.7 58 4.5 SW 6 11 3 6 - - 0.0
16/02:00pm 15.4 14.1 9.1 66 3.4 SSW 6 9 3 5 - - 0.0
16/01:30pm 14.3 12.4 7.6 64 3.5 SSE 7 15 4 8 - - 0.0
16/01:00pm 14.3 12.6 8.5 68 3.1 S 7 11 4 6 - - 0.0
16/12:30pm 13.7 12.1 8.1 69 3.0 SSE 6 11 3 6 - - 0.0
16/12:00pm 13.3 11.5 8.0 70 2.8 SSE 7 11 4 6 - - 0.0
16/11:49am 14.6 13.6 10.2 75 2.4 ESE 6 13 3 7 - - 0.0
16/11:30am 12.6 11.1 8.3 75 2.3 SSW 6 15 3 8 - - 0.0
16/11:29am 12.6 11.1 8.3 75 2.3 S 6 15 3 8 - - 0.0
16/11:18am 12.7 11.0 8.4 75 2.3 S 7 11 4 6 - - 0.0
16/11:00am 13.0 11.2 8.1 72 2.6 SE 7 15 4 8 - - 0.0
16/10:30am 12.9 11.4 9.2 78 2.0 SE 7 13 4 7 - - 0.0

Latest Capital City Observations: Canberra | Sydney | Melbourne | Brisbane | Adelaide | Perth | Hobart | Darwin

Other Formats:

Comma delimited format used in spreadsheet applications
http://www.bom.gov.au/fwo/IDN60901/IDN60901.94743.axf

JavaScript Object Notation format (JSON) in row-major order
http://www.bom.gov.au/fwo/IDN60901/IDN60901.94743.json